sensor_id;sensor_type;location;lat;lon;timestamp;P1;durP1;ratioP1;P2;durP2;ratioP2
70335;SDS011;57756;47.408;18.940;2023-06-22T00:01:58;0.60;;;0.30;;
70335;SDS011;57756;47.408;18.940;2023-06-22T00:04:23;1.00;;;0.63;;
70335;SDS011;57756;47.408;18.940;2023-06-22T00:06:49;0.73;;;0.52;;
70335;SDS011;57756;47.408;18.940;2023-06-22T00:09:14;0.77;;;0.40;;
70335;SDS011;57756;47.408;18.940;2023-06-22T00:11:40;1.33;;;0.97;;
70335;SDS011;57756;47.408;18.940;2023-06-22T00:14:05;0.97;;;0.40;;
70335;SDS011;57756;47.408;18.940;2023-06-22T00:16:34;2.63;;;0.90;;
70335;SDS011;57756;47.408;18.940;2023-06-22T00:18:59;0.93;;;0.35;;
70335;SDS011;57756;47.408;18.940;2023-06-22T00:21:26;0.60;;;0.30;;
70335;SDS011;57756;47.408;18.940;2023-06-22T00:23:52;0.57;;;0.20;;
70335;SDS011;57756;47.408;18.940;2023-06-22T00:26:18;0.90;;;0.57;;
70335;SDS011;57756;47.408;18.940;2023-06-22T00:28:44;0.60;;;0.30;;
70335;SDS011;57756;47.408;18.940;2023-06-22T00:31:09;0.60;;;0.40;;
70335;SDS011;57756;47.408;18.940;2023-06-22T00:33:35;0.50;;;0.20;;
70335;SDS011;57756;47.408;18.940;2023-06-22T00:36:00;0.93;;;0.60;;
70335;SDS011;57756;47.408;18.940;2023-06-22T00:38:28;0.82;;;0.52;;
70335;SDS011;57756;47.408;18.940;2023-06-22T00:40:53;0.82;;;0.40;;
70335;SDS011;57756;47.408;18.940;2023-06-22T00:43:19;1.40;;;0.70;;
70335;SDS011;57756;47.408;18.940;2023-06-22T00:45:45;0.85;;;0.47;;
70335;SDS011;57756;47.408;18.940;2023-06-22T00:48:10;0.80;;;0.50;;
70335;SDS011;57756;47.408;18.940;2023-06-22T00:50:37;0.85;;;0.50;;
70335;SDS011;57756;47.408;18.940;2023-06-22T00:53:04;1.17;;;0.73;;
70335;SDS011;57756;47.408;18.940;2023-06-22T00:55:38;2.08;;;0.85;;
70335;SDS011;57756;47.408;18.940;2023-06-22T00:58:08;0.60;;;0.37;;
70335;SDS011;57756;47.408;18.940;2023-06-22T01:00:35;0.65;;;0.38;;
70335;SDS011;57756;47.408;18.940;2023-06-22T01:03:02;0.50;;;0.20;;
70335;SDS011;57756;47.408;18.940;2023-06-22T01:05:29;0.55;;;0.35;;
70335;SDS011;57756;47.408;18.940;2023-06-22T01:16:10;1.35;;;0.50;;
70335;SDS011;57756;47.408;18.940;2023-06-22T01:18:43;0.80;;;0.50;;
70335;SDS011;57756;47.408;18.940;2023-06-22T01:21:11;0.60;;;0.32;;
70335;SDS011;57756;47.408;18.940;2023-06-22T01:23:55;1.60;;;0.27;;
70335;SDS011;57756;47.408;18.940;2023-06-22T01:29:40;1.15;;;0.77;;
70335;SDS011;57756;47.408;18.940;2023-06-22T01:32:08;0.75;;;0.50;;
70335;SDS011;57756;47.408;18.940;2023-06-22T01:34:35;1.42;;;0.80;;
70335;SDS011;57756;47.408;18.940;2023-06-22T01:37:01;0.50;;;0.20;;
70335;SDS011;57756;47.408;18.940;2023-06-22T01:39:28;3.13;;;1.42;;
70335;SDS011;57756;47.408;18.940;2023-06-22T01:41:54;2.28;;;0.88;;
70335;SDS011;57756;47.408;18.940;2023-06-22T01:44:20;1.85;;;1.30;;
70335;SDS011;57756;47.408;18.940;2023-06-22T01:46:46;1.30;;;0.93;;
70335;SDS011;57756;47.408;18.940;2023-06-22T01:49:14;0.97;;;0.60;;
70335;SDS011;57756;47.408;18.940;2023-06-22T01:51:40;0.98;;;0.60;;
70335;SDS011;57756;47.408;18.940;2023-06-22T01:54:06;2.15;;;1.13;;
70335;SDS011;57756;47.408;18.940;2023-06-22T01:56:33;3.50;;;1.47;;
70335;SDS011;57756;47.408;18.940;2023-06-22T01:59:07;0.98;;;0.88;;
70335;SDS011;57756;47.408;18.940;2023-06-22T02:01:42;1.20;;;0.70;;
70335;SDS011;57756;47.408;18.940;2023-06-22T02:04:54;0.52;;;0.30;;
70335;SDS011;57756;47.408;18.940;2023-06-22T02:07:04;0.93;;;0.55;;
70335;SDS011;57756;47.408;18.940;2023-06-22T02:09:33;0.43;;;0.17;;
70335;SDS011;57756;47.408;18.940;2023-06-22T02:12:02;0.50;;;0.20;;
70335;SDS011;57756;47.408;18.940;2023-06-22T02:14:30;1.03;;;0.50;;
70335;SDS011;57756;47.408;18.940;2023-06-22T02:16:56;3.75;;;1.38;;
70335;SDS011;57756;47.408;18.940;2023-06-22T02:19:24;1.02;;;0.68;;
70335;SDS011;57756;47.408;18.940;2023-06-22T02:21:49;0.43;;;0.17;;
70335;SDS011;57756;47.408;18.940;2023-06-22T02:24:15;0.47;;;0.27;;
70335;SDS011;57756;47.408;18.940;2023-06-22T02:26:40;0.93;;;0.50;;
70335;SDS011;57756;47.408;18.940;2023-06-22T02:29:08;0.88;;;0.68;;
70335;SDS011;57756;47.408;18.940;2023-06-22T02:31:33;0.77;;;0.40;;
70335;SDS011;57756;47.408;18.940;2023-06-22T02:33:59;3.83;;;0.73;;
70335;SDS011;57756;47.408;18.940;2023-06-22T02:36:25;0.70;;;0.50;;
70335;SDS011;57756;47.408;18.940;2023-06-22T02:38:52;1.15;;;0.80;;
70335;SDS011;57756;47.408;18.940;2023-06-22T02:41:19;1.00;;;0.57;;
70335;SDS011;57756;47.408;18.940;2023-06-22T02:43:48;1.13;;;0.40;;
70335;SDS011;57756;47.408;18.940;2023-06-22T02:46:13;0.85;;;0.47;;
70335;SDS011;57756;47.408;18.940;2023-06-22T02:48:39;0.90;;;0.63;;
70335;SDS011;57756;47.408;18.940;2023-06-22T02:51:06;0.70;;;0.38;;
70335;SDS011;57756;47.408;18.940;2023-06-22T02:53:32;0.60;;;0.30;;
70335;SDS011;57756;47.408;18.940;2023-06-22T02:55:57;0.50;;;0.30;;
70335;SDS011;57756;47.408;18.940;2023-06-22T02:58:22;0.60;;;0.30;;
70335;SDS011;57756;47.408;18.940;2023-06-22T03:00:49;0.67;;;0.40;;
70335;SDS011;57756;47.408;18.940;2023-06-22T03:03:21;0.50;;;0.30;;
70335;SDS011;57756;47.408;18.940;2023-06-22T03:05:46;0.43;;;0.15;;
70335;SDS011;57756;47.408;18.940;2023-06-22T03:08:12;1.30;;;0.80;;
70335;SDS011;57756;47.408;18.940;2023-06-22T03:10:37;0.90;;;0.50;;
70335;SDS011;57756;47.408;18.940;2023-06-22T03:13:03;0.77;;;0.33;;
70335;SDS011;57756;47.408;18.940;2023-06-22T03:15:29;1.85;;;0.82;;
70335;SDS011;57756;47.408;18.940;2023-06-22T03:17:56;0.82;;;0.50;;
70335;SDS011;57756;47.408;18.940;2023-06-22T03:20:22;0.50;;;0.27;;
70335;SDS011;57756;47.408;18.940;2023-06-22T03:22:48;0.70;;;0.40;;
70335;SDS011;57756;47.408;18.940;2023-06-22T03:25:13;0.83;;;0.67;;
70335;SDS011;57756;47.408;18.940;2023-06-22T03:27:40;0.50;;;0.30;;
70335;SDS011;57756;47.408;18.940;2023-06-22T03:30:07;2.08;;;0.98;;
70335;SDS011;57756;47.408;18.940;2023-06-22T03:32:35;0.43;;;0.20;;
70335;SDS011;57756;47.408;18.940;2023-06-22T03:35:01;1.13;;;0.82;;
70335;SDS011;57756;47.408;18.940;2023-06-22T03:37:27;0.80;;;0.60;;
70335;SDS011;57756;47.408;18.940;2023-06-22T03:39:53;0.47;;;0.27;;
70335;SDS011;57756;47.408;18.940;2023-06-22T03:42:18;0.50;;;0.22;;
70335;SDS011;57756;47.408;18.940;2023-06-22T03:44:44;4.33;;;0.57;;
70335;SDS011;57756;47.408;18.940;2023-06-22T03:47:09;0.73;;;0.50;;
70335;SDS011;57756;47.408;18.940;2023-06-22T03:49:35;0.50;;;0.20;;
70335;SDS011;57756;47.408;18.940;2023-06-22T03:52:01;0.57;;;0.27;;
70335;SDS011;57756;47.408;18.940;2023-06-22T03:54:27;1.00;;;0.43;;
70335;SDS011;57756;47.408;18.940;2023-06-22T03:56:53;1.73;;;0.30;;
70335;SDS011;57756;47.408;18.940;2023-06-22T03:59:19;1.03;;;0.77;;
70335;SDS011;57756;47.408;18.940;2023-06-22T04:01:44;0.90;;;0.40;;
70335;SDS011;57756;47.408;18.940;2023-06-22T04:04:11;1.25;;;0.20;;
70335;SDS011;57756;47.408;18.940;2023-06-22T04:06:37;0.60;;;0.35;;
70335;SDS011;57756;47.408;18.940;2023-06-22T04:09:03;0.45;;;0.25;;
70335;SDS011;57756;47.408;18.940;2023-06-22T04:11:28;0.93;;;0.50;;
70335;SDS011;57756;47.408;18.940;2023-06-22T04:13:54;1.03;;;0.37;;
70335;SDS011;57756;47.408;18.940;2023-06-22T04:16:20;2.38;;;1.48;;
70335;SDS011;57756;47.408;18.940;2023-06-22T04:18:45;2.17;;;1.10;;
70335;SDS011;57756;47.408;18.940;2023-06-22T04:21:11;1.03;;;0.70;;
70335;SDS011;57756;47.408;18.940;2023-06-22T04:23:37;0.80;;;0.40;;
70335;SDS011;57756;47.408;18.940;2023-06-22T04:26:02;0.80;;;0.43;;
70335;SDS011;57756;47.408;18.940;2023-06-22T04:28:27;0.60;;;0.20;;
70335;SDS011;57756;47.408;18.940;2023-06-22T04:30:53;1.90;;;1.02;;
70335;SDS011;57756;47.408;18.940;2023-06-22T04:33:23;1.08;;;0.80;;
70335;SDS011;57756;47.408;18.940;2023-06-22T04:35:48;0.90;;;0.50;;
70335;SDS011;57756;47.408;18.940;2023-06-22T04:38:14;0.97;;;0.60;;
70335;SDS011;57756;47.408;18.940;2023-06-22T04:40:40;1.25;;;0.63;;
70335;SDS011;57756;47.408;18.940;2023-06-22T04:43:05;0.97;;;0.67;;
70335;SDS011;57756;47.408;18.940;2023-06-22T04:45:31;0.82;;;0.50;;
70335;SDS011;57756;47.408;18.940;2023-06-22T04:47:57;1.25;;;0.85;;
70335;SDS011;57756;47.408;18.940;2023-06-22T04:50:23;2.42;;;1.13;;
70335;SDS011;57756;47.408;18.940;2023-06-22T04:52:50;0.90;;;0.40;;
70335;SDS011;57756;47.408;18.940;2023-06-22T04:55:15;1.92;;;1.40;;
70335;SDS011;57756;47.408;18.940;2023-06-22T04:57:43;1.58;;;0.85;;
70335;SDS011;57756;47.408;18.940;2023-06-22T05:00:14;3.33;;;0.67;;
70335;SDS011;57756;47.408;18.940;2023-06-22T05:02:42;3.42;;;0.90;;
70335;SDS011;57756;47.408;18.940;2023-06-22T05:05:12;0.82;;;0.25;;
70335;SDS011;57756;47.408;18.940;2023-06-22T05:07:45;3.58;;;0.80;;
70335;SDS011;57756;47.408;18.940;2023-06-22T05:10:13;1.17;;;0.63;;
70335;SDS011;57756;47.408;18.940;2023-06-22T05:12:39;1.33;;;1.13;;
70335;SDS011;57756;47.408;18.940;2023-06-22T05:15:09;1.20;;;0.47;;
70335;SDS011;57756;47.408;18.940;2023-06-22T05:17:35;1.65;;;1.10;;
70335;SDS011;57756;47.408;18.940;2023-06-22T05:20:01;1.38;;;0.43;;
70335;SDS011;57756;47.408;18.940;2023-06-22T05:22:28;0.93;;;0.50;;
70335;SDS011;57756;47.408;18.940;2023-06-22T05:24:53;1.03;;;0.33;;
70335;SDS011;57756;47.408;18.940;2023-06-22T05:27:19;0.97;;;0.53;;
70335;SDS011;57756;47.408;18.940;2023-06-22T05:29:44;1.00;;;0.57;;
70335;SDS011;57756;47.408;18.940;2023-06-22T05:32:10;0.97;;;0.60;;
70335;SDS011;57756;47.408;18.940;2023-06-22T05:34:35;8.40;;;0.93;;
70335;SDS011;57756;47.408;18.940;2023-06-22T05:37:01;1.15;;;0.60;;
70335;SDS011;57756;47.408;18.940;2023-06-22T05:39:27;1.98;;;1.25;;
70335;SDS011;57756;47.408;18.940;2023-06-22T05:41:53;1.60;;;0.80;;
70335;SDS011;57756;47.408;18.940;2023-06-22T05:44:18;0.97;;;0.43;;
70335;SDS011;57756;47.408;18.940;2023-06-22T05:46:44;2.83;;;0.43;;
70335;SDS011;57756;47.408;18.940;2023-06-22T05:49:12;3.28;;;1.17;;
70335;SDS011;57756;47.408;18.940;2023-06-22T05:51:37;0.77;;;0.25;;
70335;SDS011;57756;47.408;18.940;2023-06-22T05:54:03;1.90;;;0.40;;
70335;SDS011;57756;47.408;18.940;2023-06-22T05:56:28;1.10;;;0.53;;
70335;SDS011;57756;47.408;18.940;2023-06-22T05:58:54;1.48;;;0.90;;
70335;SDS011;57756;47.408;18.940;2023-06-22T06:01:19;0.93;;;0.40;;
70335;SDS011;57756;47.408;18.940;2023-06-22T06:03:45;1.83;;;1.10;;
70335;SDS011;57756;47.408;18.940;2023-06-22T06:06:11;1.00;;;0.40;;
70335;SDS011;57756;47.408;18.940;2023-06-22T06:08:37;0.80;;;0.40;;
70335;SDS011;57756;47.408;18.940;2023-06-22T06:11:03;1.60;;;0.93;;
70335;SDS011;57756;47.408;18.940;2023-06-22T06:13:28;1.75;;;0.70;;
70335;SDS011;57756;47.408;18.940;2023-06-22T06:15:53;1.70;;;0.97;;
70335;SDS011;57756;47.408;18.940;2023-06-22T06:18:23;1.13;;;0.60;;
70335;SDS011;57756;47.408;18.940;2023-06-22T06:20:48;1.27;;;0.50;;
70335;SDS011;57756;47.408;18.940;2023-06-22T06:23:14;1.67;;;0.55;;
70335;SDS011;57756;47.408;18.940;2023-06-22T06:25:40;0.88;;;0.55;;
70335;SDS011;57756;47.408;18.940;2023-06-22T06:28:05;1.00;;;0.53;;
70335;SDS011;57756;47.408;18.940;2023-06-22T06:30:31;2.10;;;0.93;;
70335;SDS011;57756;47.408;18.940;2023-06-22T06:32:56;0.90;;;0.60;;
70335;SDS011;57756;47.408;18.940;2023-06-22T06:35:22;0.80;;;0.40;;
70335;SDS011;57756;47.408;18.940;2023-06-22T06:37:49;1.33;;;0.63;;
70335;SDS011;57756;47.408;18.940;2023-06-22T06:40:15;2.10;;;0.70;;
70335;SDS011;57756;47.408;18.940;2023-06-22T06:42:43;1.00;;;0.47;;
70335;SDS011;57756;47.408;18.940;2023-06-22T06:45:19;1.10;;;0.70;;
70335;SDS011;57756;47.408;18.940;2023-06-22T06:47:47;3.78;;;3.42;;
70335;SDS011;57756;47.408;18.940;2023-06-22T06:50:14;2.83;;;0.80;;
70335;SDS011;57756;47.408;18.940;2023-06-22T06:52:39;1.00;;;0.60;;
70335;SDS011;57756;47.408;18.940;2023-06-22T06:55:05;1.90;;;1.10;;
70335;SDS011;57756;47.408;18.940;2023-06-22T06:57:34;1.77;;;1.00;;
70335;SDS011;57756;47.408;18.940;2023-06-22T07:00:02;1.77;;;1.00;;
70335;SDS011;57756;47.408;18.940;2023-06-22T07:02:32;3.95;;;1.15;;
70335;SDS011;57756;47.408;18.940;2023-06-22T07:04:58;1.73;;;1.13;;
70335;SDS011;57756;47.408;18.940;2023-06-22T07:07:23;3.55;;;1.85;;
70335;SDS011;57756;47.408;18.940;2023-06-22T07:09:49;1.33;;;0.97;;
70335;SDS011;57756;47.408;18.940;2023-06-22T07:12:14;2.07;;;1.13;;
70335;SDS011;57756;47.408;18.940;2023-06-22T07:14:40;1.33;;;1.02;;
70335;SDS011;57756;47.408;18.940;2023-06-22T07:17:06;4.10;;;1.07;;
70335;SDS011;57756;47.408;18.940;2023-06-22T07:19:32;4.07;;;1.13;;
70335;SDS011;57756;47.408;18.940;2023-06-22T07:21:58;2.67;;;1.25;;
70335;SDS011;57756;47.408;18.940;2023-06-22T07:24:23;2.10;;;1.30;;
70335;SDS011;57756;47.408;18.940;2023-06-22T07:26:49;2.40;;;1.33;;
70335;SDS011;57756;47.408;18.940;2023-06-22T07:29:19;3.08;;;1.40;;
70335;SDS011;57756;47.408;18.940;2023-06-22T07:31:46;2.10;;;1.70;;
70335;SDS011;57756;47.408;18.940;2023-06-22T07:34:12;1.40;;;0.93;;
70335;SDS011;57756;47.408;18.940;2023-06-22T07:36:38;2.50;;;1.13;;
70335;SDS011;57756;47.408;18.940;2023-06-22T07:39:04;2.50;;;1.23;;
70335;SDS011;57756;47.408;18.940;2023-06-22T07:41:30;1.67;;;1.20;;
70335;SDS011;57756;47.408;18.940;2023-06-22T07:43:55;1.35;;;0.85;;
70335;SDS011;57756;47.408;18.940;2023-06-22T07:46:21;2.17;;;1.43;;
70335;SDS011;57756;47.408;18.940;2023-06-22T07:48:47;2.00;;;1.00;;
70335;SDS011;57756;47.408;18.940;2023-06-22T07:51:12;1.90;;;1.43;;
70335;SDS011;57756;47.408;18.940;2023-06-22T07:53:39;3.00;;;1.00;;
70335;SDS011;57756;47.408;18.940;2023-06-22T07:56:05;2.40;;;1.17;;
70335;SDS011;57756;47.408;18.940;2023-06-22T07:58:34;5.18;;;2.38;;
70335;SDS011;57756;47.408;18.940;2023-06-22T08:00:59;2.53;;;2.10;;
70335;SDS011;57756;47.408;18.940;2023-06-22T08:03:25;3.23;;;1.83;;
70335;SDS011;57756;47.408;18.940;2023-06-22T08:05:50;2.35;;;1.77;;
70335;SDS011;57756;47.408;18.940;2023-06-22T08:08:16;3.00;;;1.60;;
70335;SDS011;57756;47.408;18.940;2023-06-22T08:10:41;1.87;;;1.40;;
70335;SDS011;57756;47.408;18.940;2023-06-22T08:13:07;2.67;;;1.58;;
70335;SDS011;57756;47.408;18.940;2023-06-22T08:15:33;2.28;;;1.63;;
70335;SDS011;57756;47.408;18.940;2023-06-22T08:17:58;2.00;;;1.50;;
70335;SDS011;57756;47.408;18.940;2023-06-22T08:20:25;2.35;;;1.65;;
70335;SDS011;57756;47.408;18.940;2023-06-22T08:22:51;2.10;;;1.20;;
70335;SDS011;57756;47.408;18.940;2023-06-22T08:25:18;2.85;;;2.22;;
70335;SDS011;57756;47.408;18.940;2023-06-22T08:27:47;4.77;;;1.70;;
70335;SDS011;57756;47.408;18.940;2023-06-22T08:30:15;2.85;;;1.70;;
70335;SDS011;57756;47.408;18.940;2023-06-22T08:32:43;2.78;;;1.90;;
70335;SDS011;57756;47.408;18.940;2023-06-22T08:35:09;3.20;;;1.83;;
70335;SDS011;57756;47.408;18.940;2023-06-22T08:37:34;2.63;;;1.80;;
70335;SDS011;57756;47.408;18.940;2023-06-22T08:40:01;3.95;;;2.42;;
70335;SDS011;57756;47.408;18.940;2023-06-22T08:42:33;3.67;;;1.80;;
70335;SDS011;57756;47.408;18.940;2023-06-22T08:44:58;2.45;;;1.58;;
70335;SDS011;57756;47.408;18.940;2023-06-22T08:47:23;2.73;;;1.90;;
70335;SDS011;57756;47.408;18.940;2023-06-22T08:49:49;10.70;;;2.20;;
70335;SDS011;57756;47.408;18.940;2023-06-22T08:52:15;2.43;;;1.83;;
70335;SDS011;57756;47.408;18.940;2023-06-22T08:54:40;2.33;;;1.57;;
70335;SDS011;57756;47.408;18.940;2023-06-22T08:57:06;2.85;;;1.98;;
70335;SDS011;57756;47.408;18.940;2023-06-22T08:59:32;1.93;;;1.50;;
70335;SDS011;57756;47.408;18.940;2023-06-22T09:01:57;2.30;;;1.67;;
70335;SDS011;57756;47.408;18.940;2023-06-22T09:04:23;2.37;;;1.83;;
70335;SDS011;57756;47.408;18.940;2023-06-22T09:06:49;3.28;;;1.45;;
70335;SDS011;57756;47.408;18.940;2023-06-22T09:09:15;3.97;;;2.00;;
70335;SDS011;57756;47.408;18.940;2023-06-22T09:11:41;2.55;;;1.88;;
70335;SDS011;57756;47.408;18.940;2023-06-22T09:14:08;2.20;;;1.77;;
70335;SDS011;57756;47.408;18.940;2023-06-22T09:16:34;4.03;;;2.55;;
70335;SDS011;57756;47.408;18.940;2023-06-22T09:18:59;2.37;;;1.97;;
70335;SDS011;57756;47.408;18.940;2023-06-22T09:21:25;5.68;;;2.60;;
70335;SDS011;57756;47.408;18.940;2023-06-22T09:23:50;3.10;;;2.10;;
70335;SDS011;57756;47.408;18.940;2023-06-22T09:26:19;3.72;;;2.25;;
70335;SDS011;57756;47.408;18.940;2023-06-22T09:28:45;2.53;;;2.10;;
70335;SDS011;57756;47.408;18.940;2023-06-22T09:31:11;3.10;;;2.47;;
70335;SDS011;57756;47.408;18.940;2023-06-22T09:33:36;3.17;;;2.10;;
70335;SDS011;57756;47.408;18.940;2023-06-22T09:36:05;2.58;;;2.05;;
70335;SDS011;57756;47.408;18.940;2023-06-22T09:38:34;4.30;;;2.47;;
70335;SDS011;57756;47.408;18.940;2023-06-22T09:41:00;2.75;;;2.15;;
70335;SDS011;57756;47.408;18.940;2023-06-22T09:43:26;3.13;;;2.27;;
70335;SDS011;57756;47.408;18.940;2023-06-22T09:45:52;3.60;;;2.88;;
70335;SDS011;57756;47.408;18.940;2023-06-22T09:48:18;3.53;;;1.88;;
70335;SDS011;57756;47.408;18.940;2023-06-22T09:50:43;3.20;;;2.57;;
70335;SDS011;57756;47.408;18.940;2023-06-22T09:53:09;2.50;;;2.00;;
70335;SDS011;57756;47.408;18.940;2023-06-22T09:55:34;2.80;;;2.33;;
70335;SDS011;57756;47.408;18.940;2023-06-22T09:58:00;2.53;;;1.90;;
70335;SDS011;57756;47.408;18.940;2023-06-22T10:00:25;3.10;;;2.47;;
70335;SDS011;57756;47.408;18.940;2023-06-22T10:02:51;3.23;;;2.37;;
70335;SDS011;57756;47.408;18.940;2023-06-22T10:05:17;3.42;;;2.53;;
70335;SDS011;57756;47.408;18.940;2023-06-22T10:07:43;9.70;;;3.27;;
70335;SDS011;57756;47.408;18.940;2023-06-22T10:10:12;5.55;;;3.45;;
70335;SDS011;57756;47.408;18.940;2023-06-22T10:12:42;2.90;;;2.53;;
70335;SDS011;57756;47.408;18.940;2023-06-22T10:15:10;3.00;;;2.47;;
70335;SDS011;57756;47.408;18.940;2023-06-22T10:17:36;4.70;;;2.63;;
70335;SDS011;57756;47.408;18.940;2023-06-22T10:20:02;3.43;;;2.60;;
70335;SDS011;57756;47.408;18.940;2023-06-22T10:22:35;3.92;;;2.42;;
70335;SDS011;57756;47.408;18.940;2023-06-22T10:25:01;2.47;;;2.03;;
70335;SDS011;57756;47.408;18.940;2023-06-22T10:27:26;3.53;;;2.80;;
70335;SDS011;57756;47.408;18.940;2023-06-22T10:29:52;2.92;;;1.95;;
70335;SDS011;57756;47.408;18.940;2023-06-22T10:32:18;2.70;;;2.13;;
70335;SDS011;57756;47.408;18.940;2023-06-22T10:34:44;3.85;;;2.45;;
70335;SDS011;57756;47.408;18.940;2023-06-22T10:37:09;3.07;;;2.43;;
70335;SDS011;57756;47.408;18.940;2023-06-22T10:39:35;8.30;;;4.27;;
70335;SDS011;57756;47.408;18.940;2023-06-22T10:42:00;3.43;;;3.13;;
70335;SDS011;57756;47.408;18.940;2023-06-22T10:44:26;6.80;;;2.28;;
70335;SDS011;57756;47.408;18.940;2023-06-22T10:46:51;3.90;;;3.07;;
70335;SDS011;57756;47.408;18.940;2023-06-22T10:49:17;3.10;;;2.57;;
70335;SDS011;57756;47.408;18.940;2023-06-22T10:51:42;2.50;;;1.90;;
70335;SDS011;57756;47.408;18.940;2023-06-22T10:54:07;2.88;;;2.13;;
70335;SDS011;57756;47.408;18.940;2023-06-22T10:56:33;2.87;;;1.93;;
70335;SDS011;57756;47.408;18.940;2023-06-22T10:58:58;3.53;;;2.97;;
70335;SDS011;57756;47.408;18.940;2023-06-22T11:01:24;3.15;;;2.45;;
70335;SDS011;57756;47.408;18.940;2023-06-22T11:03:49;3.83;;;3.07;;
70335;SDS011;57756;47.408;18.940;2023-06-22T11:06:15;3.80;;;2.80;;
70335;SDS011;57756;47.408;18.940;2023-06-22T11:08:43;2.35;;;1.83;;
70335;SDS011;57756;47.408;18.940;2023-06-22T11:11:09;2.90;;;2.22;;
70335;SDS011;57756;47.408;18.940;2023-06-22T11:13:34;2.77;;;2.30;;
70335;SDS011;57756;47.408;18.940;2023-06-22T11:16:00;3.00;;;2.50;;
70335;SDS011;57756;47.408;18.940;2023-06-22T11:18:25;2.80;;;2.60;;
70335;SDS011;57756;47.408;18.940;2023-06-22T11:20:51;2.60;;;2.33;;
70335;SDS011;57756;47.408;18.940;2023-06-22T11:23:16;4.10;;;2.47;;
70335;SDS011;57756;47.408;18.940;2023-06-22T11:25:42;3.50;;;2.33;;
70335;SDS011;57756;47.408;18.940;2023-06-22T11:28:07;2.63;;;2.05;;
70335;SDS011;57756;47.408;18.940;2023-06-22T11:30:33;2.97;;;2.33;;
70335;SDS011;57756;47.408;18.940;2023-06-22T11:32:59;3.60;;;2.40;;
70335;SDS011;57756;47.408;18.940;2023-06-22T11:35:25;5.87;;;3.37;;
70335;SDS011;57756;47.408;18.940;2023-06-22T11:37:51;3.30;;;2.65;;
70335;SDS011;57756;47.408;18.940;2023-06-22T11:40:16;2.67;;;2.17;;
70335;SDS011;57756;47.408;18.940;2023-06-22T11:42:42;3.10;;;2.53;;
70335;SDS011;57756;47.408;18.940;2023-06-22T11:45:08;3.83;;;2.47;;
70335;SDS011;57756;47.408;18.940;2023-06-22T11:47:34;5.15;;;2.35;;
70335;SDS011;57756;47.408;18.940;2023-06-22T11:50:01;4.00;;;2.87;;
70335;SDS011;57756;47.408;18.940;2023-06-22T11:52:27;3.60;;;2.75;;
70335;SDS011;57756;47.408;18.940;2023-06-22T11:54:52;3.80;;;2.37;;
70335;SDS011;57756;47.408;18.940;2023-06-22T11:57:18;2.78;;;2.33;;
70335;SDS011;57756;47.408;18.940;2023-06-22T11:59:43;2.43;;;1.97;;
70335;SDS011;57756;47.408;18.940;2023-06-22T12:02:08;3.00;;;2.37;;
70335;SDS011;57756;47.408;18.940;2023-06-22T12:04:34;2.58;;;2.20;;
70335;SDS011;57756;47.408;18.940;2023-06-22T12:07:00;2.67;;;2.17;;
70335;SDS011;57756;47.408;18.940;2023-06-22T12:09:25;2.33;;;1.92;;
70335;SDS011;57756;47.408;18.940;2023-06-22T12:11:51;4.33;;;2.23;;
70335;SDS011;57756;47.408;18.940;2023-06-22T12:14:17;2.47;;;2.03;;
70335;SDS011;57756;47.408;18.940;2023-06-22T12:16:42;2.50;;;1.80;;
70335;SDS011;57756;47.408;18.940;2023-06-22T12:19:09;3.15;;;2.53;;
70335;SDS011;57756;47.408;18.940;2023-06-22T12:21:35;3.43;;;2.40;;
70335;SDS011;57756;47.408;18.940;2023-06-22T12:24:00;2.45;;;1.88;;
70335;SDS011;57756;47.408;18.940;2023-06-22T12:26:25;2.97;;;2.67;;
70335;SDS011;57756;47.408;18.940;2023-06-22T12:28:51;2.63;;;2.00;;
70335;SDS011;57756;47.408;18.940;2023-06-22T12:31:17;2.83;;;2.28;;
70335;SDS011;57756;47.408;18.940;2023-06-22T12:33:42;5.27;;;2.47;;
70335;SDS011;57756;47.408;18.940;2023-06-22T12:36:08;2.70;;;2.40;;
70335;SDS011;57756;47.408;18.940;2023-06-22T12:38:33;3.17;;;2.10;;
70335;SDS011;57756;47.408;18.940;2023-06-22T12:40:58;2.97;;;2.00;;
70335;SDS011;57756;47.408;18.940;2023-06-22T12:43:24;3.50;;;2.00;;
70335;SDS011;57756;47.408;18.940;2023-06-22T12:45:49;4.45;;;2.65;;
70335;SDS011;57756;47.408;18.940;2023-06-22T12:48:15;2.77;;;2.10;;
70335;SDS011;57756;47.408;18.940;2023-06-22T12:50:41;2.70;;;2.10;;
70335;SDS011;57756;47.408;18.940;2023-06-22T12:53:07;2.53;;;2.00;;
70335;SDS011;57756;47.408;18.940;2023-06-22T12:55:33;3.30;;;2.00;;
70335;SDS011;57756;47.408;18.940;2023-06-22T12:57:58;2.67;;;1.80;;
70335;SDS011;57756;47.408;18.940;2023-06-22T13:00:24;2.03;;;1.57;;
70335;SDS011;57756;47.408;18.940;2023-06-22T13:02:49;2.27;;;1.80;;
70335;SDS011;57756;47.408;18.940;2023-06-22T13:05:14;3.40;;;1.97;;
70335;SDS011;57756;47.408;18.940;2023-06-22T13:07:40;2.43;;;1.57;;
70335;SDS011;57756;47.408;18.940;2023-06-22T13:10:07;3.35;;;2.38;;
70335;SDS011;57756;47.408;18.940;2023-06-22T13:12:33;3.47;;;2.15;;
70335;SDS011;57756;47.408;18.940;2023-06-22T13:14:59;3.60;;;1.97;;
70335;SDS011;57756;47.408;18.940;2023-06-22T13:17:24;2.50;;;1.67;;
70335;SDS011;57756;47.408;18.940;2023-06-22T13:19:50;2.53;;;2.10;;
70335;SDS011;57756;47.408;18.940;2023-06-22T13:22:31;3.43;;;2.13;;
70335;SDS011;57756;47.408;18.940;2023-06-22T13:24:58;2.80;;;2.03;;
70335;SDS011;57756;47.408;18.940;2023-06-22T13:27:24;2.70;;;1.63;;
70335;SDS011;57756;47.408;18.940;2023-06-22T13:29:50;3.40;;;2.05;;
70335;SDS011;57756;47.408;18.940;2023-06-22T13:32:16;1.90;;;1.30;;
70335;SDS011;57756;47.408;18.940;2023-06-22T13:34:42;2.77;;;2.00;;
70335;SDS011;57756;47.408;18.940;2023-06-22T13:37:08;2.45;;;1.48;;
70335;SDS011;57756;47.408;18.940;2023-06-22T13:39:34;3.33;;;2.80;;
70335;SDS011;57756;47.408;18.940;2023-06-22T13:41:59;4.57;;;2.85;;
70335;SDS011;57756;47.408;18.940;2023-06-22T13:44:24;3.50;;;2.17;;
70335;SDS011;57756;47.408;18.940;2023-06-22T13:46:53;2.60;;;1.70;;
70335;SDS011;57756;47.408;18.940;2023-06-22T13:49:22;2.80;;;2.07;;
70335;SDS011;57756;47.408;18.940;2023-06-22T13:51:47;4.18;;;2.20;;
70335;SDS011;57756;47.408;18.940;2023-06-22T13:54:14;2.63;;;1.75;;
70335;SDS011;57756;47.408;18.940;2023-06-22T13:56:39;2.72;;;1.90;;
70335;SDS011;57756;47.408;18.940;2023-06-22T13:59:05;3.60;;;2.30;;
70335;SDS011;57756;47.408;18.940;2023-06-22T14:01:32;2.45;;;1.70;;
70335;SDS011;57756;47.408;18.940;2023-06-22T14:03:57;3.37;;;2.60;;
70335;SDS011;57756;47.408;18.940;2023-06-22T14:06:22;2.33;;;1.90;;
70335;SDS011;57756;47.408;18.940;2023-06-22T14:08:48;2.63;;;2.07;;
70335;SDS011;57756;47.408;18.940;2023-06-22T14:11:14;2.72;;;2.03;;
70335;SDS011;57756;47.408;18.940;2023-06-22T14:13:40;2.83;;;1.73;;
70335;SDS011;57756;47.408;18.940;2023-06-22T14:16:07;4.47;;;2.30;;
70335;SDS011;57756;47.408;18.940;2023-06-22T14:18:33;2.03;;;1.55;;
70335;SDS011;57756;47.408;18.940;2023-06-22T14:20:58;2.77;;;1.87;;
70335;SDS011;57756;47.408;18.940;2023-06-22T14:23:24;2.37;;;1.70;;
70335;SDS011;57756;47.408;18.940;2023-06-22T14:25:50;6.07;;;2.40;;
70335;SDS011;57756;47.408;18.940;2023-06-22T14:28:15;2.73;;;1.97;;
70335;SDS011;57756;47.408;18.940;2023-06-22T14:30:41;3.05;;;1.83;;
70335;SDS011;57756;47.408;18.940;2023-06-22T14:33:07;3.20;;;2.30;;
70335;SDS011;57756;47.408;18.940;2023-06-22T14:35:32;2.80;;;2.17;;
70335;SDS011;57756;47.408;18.940;2023-06-22T14:37:58;3.43;;;2.27;;
70335;SDS011;57756;47.408;18.940;2023-06-22T14:40:23;5.90;;;2.23;;